sensor_id;sensor_type;location;lat;lon;timestamp;P1;durP1;ratioP1;P2;durP2;ratioP2
73331;SDS011;61560;33.718;73.040;2023-02-01T00:01:35;22.92;;;8.57;;
73331;SDS011;61560;33.718;73.040;2023-02-01T00:04:02;22.45;;;9.32;;
73331;SDS011;61560;33.718;73.040;2023-02-01T00:06:28;18.98;;;7.75;;
73331;SDS011;61560;33.718;73.040;2023-02-01T00:08:55;17.05;;;8.77;;
73331;SDS011;61560;33.718;73.040;2023-02-01T00:11:22;23.45;;;8.35;;
73331;SDS011;61560;33.718;73.040;2023-02-01T00:13:50;20.17;;;7.90;;
73331;SDS011;61560;33.718;73.040;2023-02-01T00:16:22;16.15;;;8.45;;
73331;SDS011;61560;33.718;73.040;2023-02-01T00:18:55;20.50;;;8.70;;
73331;SDS011;61560;33.718;73.040;2023-02-01T00:21:27;15.10;;;7.28;;
73331;SDS011;61560;33.718;73.040;2023-02-01T00:23:54;16.00;;;6.88;;
73331;SDS011;61560;33.718;73.040;2023-02-01T00:26:25;18.83;;;8.48;;
73331;SDS011;61560;33.718;73.040;2023-02-01T00:28:58;15.95;;;7.25;;
73331;SDS011;61560;33.718;73.040;2023-02-01T00:31:24;14.02;;;6.93;;
73331;SDS011;61560;33.718;73.040;2023-02-01T00:33:51;19.33;;;6.72;;
73331;SDS011;61560;33.718;73.040;2023-02-01T00:36:18;16.73;;;7.32;;
73331;SDS011;61560;33.718;73.040;2023-02-01T00:38:45;16.25;;;7.70;;
73331;SDS011;61560;33.718;73.040;2023-02-01T00:41:16;19.13;;;7.97;;
73331;SDS011;61560;33.718;73.040;2023-02-01T00:43:45;18.92;;;8.55;;
73331;SDS011;61560;33.718;73.040;2023-02-01T00:46:12;16.27;;;7.05;;
73331;SDS011;61560;33.718;73.040;2023-02-01T00:48:40;17.67;;;7.28;;
73331;SDS011;61560;33.718;73.040;2023-02-01T00:51:30;15.65;;;6.63;;
73331;SDS011;61560;33.718;73.040;2023-02-01T00:53:55;17.73;;;7.80;;
73331;SDS011;61560;33.718;73.040;2023-02-01T00:56:21;20.77;;;7.10;;
73331;SDS011;61560;33.718;73.040;2023-02-01T00:58:49;15.85;;;7.10;;
73331;SDS011;61560;33.718;73.040;2023-02-01T01:01:17;18.17;;;8.23;;
73331;SDS011;61560;33.718;73.040;2023-02-01T01:03:50;18.40;;;7.70;;
73331;SDS011;61560;33.718;73.040;2023-02-01T01:06:23;22.60;;;6.68;;
73331;SDS011;61560;33.718;73.040;2023-02-01T01:08:55;19.88;;;7.80;;
73331;SDS011;61560;33.718;73.040;2023-02-01T01:11:25;14.93;;;6.88;;
73331;SDS011;61560;33.718;73.040;2023-02-01T01:13:54;18.27;;;8.27;;
73331;SDS011;61560;33.718;73.040;2023-02-01T01:16:23;17.33;;;7.90;;
73331;SDS011;61560;33.718;73.040;2023-02-01T01:18:51;19.67;;;7.88;;
73331;SDS011;61560;33.718;73.040;2023-02-01T01:21:28;18.08;;;6.60;;
73331;SDS011;61560;33.718;73.040;2023-02-01T01:23:57;14.77;;;6.88;;
73331;SDS011;61560;33.718;73.040;2023-02-01T01:26:25;13.48;;;6.80;;
73331;SDS011;61560;33.718;73.040;2023-02-01T01:28:54;14.82;;;7.55;;
73331;SDS011;61560;33.718;73.040;2023-02-01T01:31:22;18.30;;;7.68;;
73331;SDS011;61560;33.718;73.040;2023-02-01T01:33:51;18.27;;;7.97;;
73331;SDS011;61560;33.718;73.040;2023-02-01T01:36:20;16.15;;;7.13;;
73331;SDS011;61560;33.718;73.040;2023-02-01T01:38:47;20.85;;;7.65;;
73331;SDS011;61560;33.718;73.040;2023-02-01T01:41:15;17.42;;;7.53;;
73331;SDS011;61560;33.718;73.040;2023-02-01T01:43:54;15.27;;;7.28;;
73331;SDS011;61560;33.718;73.040;2023-02-01T01:46:27;15.07;;;7.20;;
73331;SDS011;61560;33.718;73.040;2023-02-01T01:51:35;15.98;;;8.05;;
73331;SDS011;61560;33.718;73.040;2023-02-01T01:54:11;17.52;;;6.85;;
73331;SDS011;61560;33.718;73.040;2023-02-01T01:56:45;18.00;;;7.28;;
73331;SDS011;61560;33.718;73.040;2023-02-01T01:59:16;19.83;;;7.40;;
73331;SDS011;61560;33.718;73.040;2023-02-01T02:01:43;19.27;;;6.90;;
73331;SDS011;61560;33.718;73.040;2023-02-01T02:04:11;19.35;;;8.65;;
73331;SDS011;61560;33.718;73.040;2023-02-01T02:06:50;19.65;;;7.93;;
73331;SDS011;61560;33.718;73.040;2023-02-01T02:09:19;15.07;;;6.50;;
73331;SDS011;61560;33.718;73.040;2023-02-01T02:11:45;14.65;;;7.40;;
73331;SDS011;61560;33.718;73.040;2023-02-01T02:14:12;15.93;;;6.78;;
73331;SDS011;61560;33.718;73.040;2023-02-01T02:30:37;21.73;;;8.68;;
73331;SDS011;61560;33.718;73.040;2023-02-01T02:33:29;16.98;;;8.50;;
73331;SDS011;61560;33.718;73.040;2023-02-01T02:36:04;25.45;;;8.60;;
73331;SDS011;61560;33.718;73.040;2023-02-01T02:38:38;27.23;;;9.75;;
73331;SDS011;61560;33.718;73.040;2023-02-01T02:41:31;16.85;;;8.57;;
73331;SDS011;61560;33.718;73.040;2023-02-01T02:44:21;23.60;;;9.15;;
73331;SDS011;61560;33.718;73.040;2023-02-01T02:47:40;17.08;;;8.25;;
73331;SDS011;61560;33.718;73.040;2023-02-01T02:50:44;22.15;;;9.77;;
73331;SDS011;61560;33.718;73.040;2023-02-01T02:53:51;16.95;;;8.25;;
73331;SDS011;61560;33.718;73.040;2023-02-01T02:56:46;18.80;;;10.02;;
73331;SDS011;61560;33.718;73.040;2023-02-01T02:59:34;29.75;;;9.93;;
73331;SDS011;61560;33.718;73.040;2023-02-01T03:02:20;30.83;;;11.13;;
73331;SDS011;61560;33.718;73.040;2023-02-01T03:05:06;25.88;;;11.30;;
73331;SDS011;61560;33.718;73.040;2023-02-01T03:07:49;26.75;;;11.77;;
73331;SDS011;61560;33.718;73.040;2023-02-01T03:16:18;32.55;;;11.68;;
73331;SDS011;61560;33.718;73.040;2023-02-01T03:21:46;33.95;;;12.63;;
73331;SDS011;61560;33.718;73.040;2023-02-01T03:24:18;35.95;;;11.18;;
73331;SDS011;61560;33.718;73.040;2023-02-01T03:27:10;26.60;;;11.07;;
73331;SDS011;61560;33.718;73.040;2023-02-01T03:32:15;24.98;;;11.25;;
73331;SDS011;61560;33.718;73.040;2023-02-01T03:34:44;27.30;;;10.88;;
73331;SDS011;61560;33.718;73.040;2023-02-01T03:37:12;24.83;;;10.70;;
73331;SDS011;61560;33.718;73.040;2023-02-01T03:42:28;32.35;;;12.15;;
73331;SDS011;61560;33.718;73.040;2023-02-01T03:45:10;21.63;;;10.75;;
73331;SDS011;61560;33.718;73.040;2023-02-01T03:47:47;31.63;;;11.95;;
73331;SDS011;61560;33.718;73.040;2023-02-01T03:50:18;42.27;;;14.10;;
73331;SDS011;61560;33.718;73.040;2023-02-01T03:52:54;28.45;;;12.77;;
73331;SDS011;61560;33.718;73.040;2023-02-01T03:55:25;31.90;;;13.30;;
73331;SDS011;61560;33.718;73.040;2023-02-01T03:57:57;29.60;;;12.93;;
73331;SDS011;61560;33.718;73.040;2023-02-01T04:00:30;37.63;;;14.90;;
73331;SDS011;61560;33.718;73.040;2023-02-01T04:02:57;49.30;;;17.10;;
73331;SDS011;61560;33.718;73.040;2023-02-01T04:05:25;49.55;;;16.73;;
73331;SDS011;61560;33.718;73.040;2023-02-01T04:07:59;43.28;;;17.25;;
73331;SDS011;61560;33.718;73.040;2023-02-01T04:10:26;39.85;;;18.05;;
73331;SDS011;61560;33.718;73.040;2023-02-01T04:12:53;39.55;;;18.20;;
73331;SDS011;61560;33.718;73.040;2023-02-01T04:15:19;44.22;;;17.98;;
73331;SDS011;61560;33.718;73.040;2023-02-01T04:17:45;44.17;;;17.88;;
73331;SDS011;61560;33.718;73.040;2023-02-01T04:20:12;37.55;;;17.10;;
73331;SDS011;61560;33.718;73.040;2023-02-01T04:22:39;40.17;;;17.25;;
73331;SDS011;61560;33.718;73.040;2023-02-01T04:25:06;41.10;;;16.55;;
73331;SDS011;61560;33.718;73.040;2023-02-01T04:27:33;43.28;;;15.70;;
73331;SDS011;61560;33.718;73.040;2023-02-01T04:30:02;40.30;;;15.15;;
73331;SDS011;61560;33.718;73.040;2023-02-01T04:32:29;49.03;;;17.50;;
73331;SDS011;61560;33.718;73.040;2023-02-01T04:34:55;51.78;;;20.52;;
73331;SDS011;61560;33.718;73.040;2023-02-01T04:37:22;40.92;;;19.42;;
73331;SDS011;61560;33.718;73.040;2023-02-01T04:39:48;41.72;;;18.58;;
73331;SDS011;61560;33.718;73.040;2023-02-01T04:42:14;42.05;;;17.30;;
73331;SDS011;61560;33.718;73.040;2023-02-01T04:44:41;39.63;;;17.02;;
73331;SDS011;61560;33.718;73.040;2023-02-01T04:47:08;34.22;;;15.80;;
73331;SDS011;61560;33.718;73.040;2023-02-01T04:49:36;40.63;;;14.30;;
73331;SDS011;61560;33.718;73.040;2023-02-01T04:52:02;38.45;;;18.58;;
73331;SDS011;61560;33.718;73.040;2023-02-01T04:54:29;46.22;;;19.05;;
73331;SDS011;61560;33.718;73.040;2023-02-01T04:56:55;43.90;;;17.52;;
73331;SDS011;61560;33.718;73.040;2023-02-01T04:59:22;46.22;;;17.98;;
73331;SDS011;61560;33.718;73.040;2023-02-01T05:01:52;38.75;;;15.57;;
73331;SDS011;61560;33.718;73.040;2023-02-01T05:04:18;40.35;;;17.88;;
73331;SDS011;61560;33.718;73.040;2023-02-01T05:06:46;44.65;;;17.02;;
73331;SDS011;61560;33.718;73.040;2023-02-01T05:09:12;39.25;;;16.58;;
73331;SDS011;61560;33.718;73.040;2023-02-01T05:11:39;43.78;;;18.20;;
73331;SDS011;61560;33.718;73.040;2023-02-01T05:14:24;34.35;;;15.50;;
73331;SDS011;61560;33.718;73.040;2023-02-01T05:16:50;42.22;;;17.02;;
73331;SDS011;61560;33.718;73.040;2023-02-01T05:19:17;38.75;;;16.48;;
73331;SDS011;61560;33.718;73.040;2023-02-01T05:21:43;42.30;;;17.10;;
73331;SDS011;61560;33.718;73.040;2023-02-01T05:24:13;37.15;;;16.50;;
73331;SDS011;61560;33.718;73.040;2023-02-01T05:26:45;46.28;;;17.27;;
73331;SDS011;61560;33.718;73.040;2023-02-01T05:29:13;37.50;;;15.85;;
73331;SDS011;61560;33.718;73.040;2023-02-01T05:31:40;35.28;;;15.80;;
73331;SDS011;61560;33.718;73.040;2023-02-01T05:34:07;42.95;;;16.98;;
73331;SDS011;61560;33.718;73.040;2023-02-01T05:36:36;40.13;;;14.95;;
73331;SDS011;61560;33.718;73.040;2023-02-01T05:39:03;41.58;;;16.25;;
73331;SDS011;61560;33.718;73.040;2023-02-01T05:41:33;27.73;;;12.95;;
73331;SDS011;61560;33.718;73.040;2023-02-01T05:43:59;23.85;;;11.57;;
73331;SDS011;61560;33.718;73.040;2023-02-01T05:46:26;28.75;;;11.73;;
73331;SDS011;61560;33.718;73.040;2023-02-01T05:48:53;30.83;;;13.48;;
73331;SDS011;61560;33.718;73.040;2023-02-01T05:51:19;29.27;;;13.40;;
73331;SDS011;61560;33.718;73.040;2023-02-01T05:53:46;36.10;;;14.65;;
73331;SDS011;61560;33.718;73.040;2023-02-01T05:56:13;37.72;;;14.75;;
73331;SDS011;61560;33.718;73.040;2023-02-01T05:58:39;34.20;;;15.35;;
73331;SDS011;61560;33.718;73.040;2023-02-01T06:01:08;36.72;;;16.67;;
73331;SDS011;61560;33.718;73.040;2023-02-01T06:03:35;41.03;;;16.58;;
73331;SDS011;61560;33.718;73.040;2023-02-01T06:06:03;43.78;;;14.93;;
73331;SDS011;61560;33.718;73.040;2023-02-01T06:08:30;34.75;;;15.13;;
73331;SDS011;61560;33.718;73.040;2023-02-01T06:10:57;41.22;;;17.08;;
73331;SDS011;61560;33.718;73.040;2023-02-01T06:13:28;41.22;;;17.55;;
73331;SDS011;61560;33.718;73.040;2023-02-01T06:15:54;40.10;;;15.77;;
73331;SDS011;61560;33.718;73.040;2023-02-01T06:18:24;37.13;;;15.25;;
73331;SDS011;61560;33.718;73.040;2023-02-01T06:20:56;34.70;;;16.07;;
73331;SDS011;61560;33.718;73.040;2023-02-01T06:23:25;35.10;;;14.98;;
73331;SDS011;61560;33.718;73.040;2023-02-01T06:25:53;37.80;;;15.73;;
73331;SDS011;61560;33.718;73.040;2023-02-01T06:28:25;32.92;;;15.65;;
73331;SDS011;61560;33.718;73.040;2023-02-01T06:30:54;30.50;;;14.48;;
73331;SDS011;61560;33.718;73.040;2023-02-01T06:33:21;33.67;;;13.23;;
73331;SDS011;61560;33.718;73.040;2023-02-01T06:35:48;37.28;;;13.70;;
73331;SDS011;61560;33.718;73.040;2023-02-01T06:38:17;33.60;;;13.40;;
73331;SDS011;61560;33.718;73.040;2023-02-01T06:40:44;26.17;;;13.32;;
73331;SDS011;61560;33.718;73.040;2023-02-01T06:43:10;29.30;;;13.57;;
73331;SDS011;61560;33.718;73.040;2023-02-01T06:45:37;31.52;;;12.60;;
73331;SDS011;61560;33.718;73.040;2023-02-01T06:48:04;27.60;;;12.23;;
73331;SDS011;61560;33.718;73.040;2023-02-01T06:50:31;26.30;;;12.27;;
73331;SDS011;61560;33.718;73.040;2023-02-01T06:52:57;34.28;;;12.82;;
73331;SDS011;61560;33.718;73.040;2023-02-01T06:55:24;28.17;;;12.23;;
73331;SDS011;61560;33.718;73.040;2023-02-01T06:57:52;32.78;;;13.02;;
73331;SDS011;61560;33.718;73.040;2023-02-01T07:00:20;26.45;;;10.57;;
73331;SDS011;61560;33.718;73.040;2023-02-01T07:02:48;27.63;;;12.05;;
73331;SDS011;61560;33.718;73.040;2023-02-01T07:05:14;22.17;;;10.18;;
73331;SDS011;61560;33.718;73.040;2023-02-01T07:07:42;29.65;;;11.07;;
73331;SDS011;61560;33.718;73.040;2023-02-01T07:10:09;24.65;;;10.40;;
73331;SDS011;61560;33.718;73.040;2023-02-01T07:12:37;39.40;;;13.82;;
73331;SDS011;61560;33.718;73.040;2023-02-01T07:15:03;28.92;;;14.07;;
73331;SDS011;61560;33.718;73.040;2023-02-01T07:17:31;26.65;;;11.00;;
73331;SDS011;61560;33.718;73.040;2023-02-01T07:19:57;31.83;;;13.23;;
73331;SDS011;61560;33.718;73.040;2023-02-01T07:22:27;32.35;;;13.57;;
73331;SDS011;61560;33.718;73.040;2023-02-01T07:24:54;34.05;;;13.77;;
73331;SDS011;61560;33.718;73.040;2023-02-01T07:27:21;30.33;;;13.48;;
73331;SDS011;61560;33.718;73.040;2023-02-01T07:29:50;28.60;;;13.45;;
73331;SDS011;61560;33.718;73.040;2023-02-01T07:32:17;32.13;;;13.52;;
73331;SDS011;61560;33.718;73.040;2023-02-01T07:34:44;35.80;;;13.25;;
73331;SDS011;61560;33.718;73.040;2023-02-01T07:37:11;26.10;;;12.15;;
73331;SDS011;61560;33.718;73.040;2023-02-01T07:39:37;30.73;;;13.65;;
73331;SDS011;61560;33.718;73.040;2023-02-01T07:42:05;35.22;;;12.70;;
73331;SDS011;61560;33.718;73.040;2023-02-01T07:44:32;26.30;;;12.23;;
73331;SDS011;61560;33.718;73.040;2023-02-01T07:46:58;29.98;;;11.82;;
73331;SDS011;61560;33.718;73.040;2023-02-01T07:49:25;27.25;;;11.65;;
73331;SDS011;61560;33.718;73.040;2023-02-01T07:51:51;31.17;;;12.05;;
73331;SDS011;61560;33.718;73.040;2023-02-01T07:54:18;26.80;;;13.32;;
73331;SDS011;61560;33.718;73.040;2023-02-01T07:56:44;28.90;;;12.80;;
73331;SDS011;61560;33.718;73.040;2023-02-01T07:59:11;29.30;;;13.63;;
73331;SDS011;61560;33.718;73.040;2023-02-01T08:01:37;22.17;;;10.38;;
73331;SDS011;61560;33.718;73.040;2023-02-01T09:03:48;14.48;;;6.25;;
73331;SDS011;61560;33.718;73.040;2023-02-01T09:06:14;12.93;;;6.38;;
73331;SDS011;61560;33.718;73.040;2023-02-01T09:08:44;12.15;;;5.45;;
73331;SDS011;61560;33.718;73.040;2023-02-01T09:11:13;19.58;;;8.02;;
73331;SDS011;61560;33.718;73.040;2023-02-01T09:13:40;18.08;;;8.55;;
73331;SDS011;61560;33.718;73.040;2023-02-01T09:16:09;17.40;;;8.45;;
73331;SDS011;61560;33.718;73.040;2023-02-01T09:18:35;17.08;;;9.48;;
73331;SDS011;61560;33.718;73.040;2023-02-01T09:21:05;21.05;;;10.70;;
73331;SDS011;61560;33.718;73.040;2023-02-01T09:23:35;19.70;;;9.57;;
73331;SDS011;61560;33.718;73.040;2023-02-01T09:26:02;19.52;;;9.82;;
73331;SDS011;61560;33.718;73.040;2023-02-01T09:28:30;19.75;;;9.70;;
73331;SDS011;61560;33.718;73.040;2023-02-01T09:30:57;23.15;;;11.90;;
73331;SDS011;61560;33.718;73.040;2023-02-01T09:33:27;24.42;;;12.57;;
73331;SDS011;61560;33.718;73.040;2023-02-01T09:38:29;18.73;;;9.02;;
73331;SDS011;61560;33.718;73.040;2023-02-01T09:40:57;32.85;;;10.48;;
73331;SDS011;61560;33.718;73.040;2023-02-01T09:43:29;20.95;;;9.98;;
73331;SDS011;61560;33.718;73.040;2023-02-01T09:46:18;25.73;;;12.20;;
73331;SDS011;61560;33.718;73.040;2023-02-01T09:48:56;22.90;;;10.55;;
73331;SDS011;61560;33.718;73.040;2023-02-01T09:51:48;21.37;;;10.47;;
73331;SDS011;61560;33.718;73.040;2023-02-01T09:54:16;23.25;;;10.98;;
73331;SDS011;61560;33.718;73.040;2023-02-01T09:57:01;25.05;;;12.40;;
73331;SDS011;61560;33.718;73.040;2023-02-01T10:02:12;21.35;;;12.05;;
73331;SDS011;61560;33.718;73.040;2023-02-01T10:04:46;25.45;;;13.07;;
73331;SDS011;61560;33.718;73.040;2023-02-01T10:12:36;16.75;;;9.43;;
73331;SDS011;61560;33.718;73.040;2023-02-01T10:18:02;19.83;;;9.70;;
73331;SDS011;61560;33.718;73.040;2023-02-01T10:26:12;25.92;;;10.70;;
73331;SDS011;61560;33.718;73.040;2023-02-01T10:28:56;22.50;;;9.63;;
73331;SDS011;61560;33.718;73.040;2023-02-01T10:31:26;27.73;;;9.00;;
73331;SDS011;61560;33.718;73.040;2023-02-01T10:33:59;21.15;;;7.93;;
73331;SDS011;61560;33.718;73.040;2023-02-01T10:36:39;31.25;;;8.75;;
73331;SDS011;61560;33.718;73.040;2023-02-01T10:39:11;18.60;;;8.10;;
73331;SDS011;61560;33.718;73.040;2023-02-01T10:41:40;18.40;;;7.35;;
73331;SDS011;61560;33.718;73.040;2023-02-01T10:44:15;16.25;;;6.35;;
73331;SDS011;61560;33.718;73.040;2023-02-01T10:46:45;13.80;;;6.97;;
73331;SDS011;61560;33.718;73.040;2023-02-01T10:49:14;13.50;;;6.88;;
73331;SDS011;61560;33.718;73.040;2023-02-01T10:52:02;21.77;;;9.57;;
73331;SDS011;61560;33.718;73.040;2023-02-01T10:54:39;15.88;;;8.68;;
73331;SDS011;61560;33.718;73.040;2023-02-01T10:57:09;16.77;;;8.68;;
73331;SDS011;61560;33.718;73.040;2023-02-01T10:59:46;16.15;;;7.57;;
73331;SDS011;61560;33.718;73.040;2023-02-01T11:02:31;12.93;;;7.47;;
73331;SDS011;61560;33.718;73.040;2023-02-01T11:05:07;13.40;;;5.90;;
73331;SDS011;61560;33.718;73.040;2023-02-01T11:07:39;10.82;;;5.40;;
73331;SDS011;61560;33.718;73.040;2023-02-01T11:10:45;7.50;;;4.88;;
73331;SDS011;61560;33.718;73.040;2023-02-01T11:13:13;12.23;;;5.60;;
73331;SDS011;61560;33.718;73.040;2023-02-01T11:15:45;9.43;;;5.28;;
73331;SDS011;61560;33.718;73.040;2023-02-01T11:18:24;11.88;;;5.47;;
73331;SDS011;61560;33.718;73.040;2023-02-01T11:20:57;13.27;;;5.32;;
73331;SDS011;61560;33.718;73.040;2023-02-01T11:23:25;12.30;;;5.45;;
73331;SDS011;61560;33.718;73.040;2023-02-01T11:25:55;9.20;;;5.43;;
73331;SDS011;61560;33.718;73.040;2023-02-01T11:28:31;11.40;;;5.25;;
73331;SDS011;61560;33.718;73.040;2023-02-01T11:31:02;10.38;;;4.53;;
73331;SDS011;61560;33.718;73.040;2023-02-01T11:33:31;11.00;;;4.78;;
73331;SDS011;61560;33.718;73.040;2023-02-01T11:36:06;9.48;;;4.80;;
73331;SDS011;61560;33.718;73.040;2023-02-01T11:38:34;9.75;;;4.50;;
73331;SDS011;61560;33.718;73.040;2023-02-01T11:41:22;10.30;;;4.35;;
73331;SDS011;61560;33.718;73.040;2023-02-01T11:43:54;8.10;;;3.90;;
73331;SDS011;61560;33.718;73.040;2023-02-01T11:46:30;11.13;;;4.72;;
73331;SDS011;61560;33.718;73.040;2023-02-01T11:51:56;9.20;;;4.97;;
73331;SDS011;61560;33.718;73.040;2023-02-01T12:00:40;21.83;;;6.40;;
73331;SDS011;61560;33.718;73.040;2023-02-01T12:06:12;11.05;;;5.35;;
73331;SDS011;61560;33.718;73.040;2023-02-01T12:23:30;13.90;;;5.50;;
73331;SDS011;61560;33.718;73.040;2023-02-01T12:26:12;14.82;;;5.88;;
73331;SDS011;61560;33.718;73.040;2023-02-01T12:42:59;11.82;;;4.18;;
73331;SDS011;61560;33.718;73.040;2023-02-01T12:51:16;12.00;;;5.43;;
73331;SDS011;61560;33.718;73.040;2023-02-01T12:53:57;13.45;;;5.18;;
73331;SDS011;61560;33.718;73.040;2023-02-01T12:59:04;12.30;;;5.43;;
73331;SDS011;61560;33.718;73.040;2023-02-01T14:03:42;11.10;;;4.65;;
73331;SDS011;61560;33.718;73.040;2023-02-01T14:06:33;15.13;;;4.95;;
73331;SDS011;61560;33.718;73.040;2023-02-01T14:19:22;10.77;;;4.05;;
73331;SDS011;61560;33.718;73.040;2023-02-01T14:29:42;12.65;;;5.10;;
73331;SDS011;61560;33.718;73.040;2023-02-01T14:47:49;9.60;;;4.03;;
73331;SDS011;61560;33.718;73.040;2023-02-01T15:01:16;12.70;;;4.82;;
73331;SDS011;61560;33.718;73.040;2023-02-01T15:07:33;10.45;;;5.30;;
73331;SDS011;61560;33.718;73.040;2023-02-01T15:10:01;12.52;;;4.78;;
73331;SDS011;61560;33.718;73.040;2023-02-01T15:12:30;11.95;;;5.35;;
73331;SDS011;61560;33.718;73.040;2023-02-01T15:15:10;11.02;;;5.63;;
73331;SDS011;61560;33.718;73.040;2023-02-01T15:17:40;10.95;;;4.90;;
73331;SDS011;61560;33.718;73.040;2023-02-01T15:20:13;12.25;;;5.72;;
73331;SDS011;61560;33.718;73.040;2023-02-01T15:22:52;15.50;;;6.93;;
73331;SDS011;61560;33.718;73.040;2023-02-01T15:25:23;14.02;;;6.88;;
73331;SDS011;61560;33.718;73.040;2023-02-01T15:27:53;16.15;;;7.78;;
73331;SDS011;61560;33.718;73.040;2023-02-01T15:30:25;17.60;;;7.43;;
73331;SDS011;61560;33.718;73.040;2023-02-01T15:46:08;26.07;;;11.57;;
73331;SDS011;61560;33.718;73.040;2023-02-01T15:48:56;21.05;;;10.18;;
73331;SDS011;61560;33.718;73.040;2023-02-01T15:51:24;20.23;;;10.10;;
73331;SDS011;61560;33.718;73.040;2023-02-01T15:53:55;27.42;;;11.90;;
73331;SDS011;61560;33.718;73.040;2023-02-01T15:56:25;21.63;;;10.88;;
73331;SDS011;61560;33.718;73.040;2023-02-01T15:58:55;28.02;;;11.38;;
73331;SDS011;61560;33.718;73.040;2023-02-01T16:01:24;28.70;;;12.82;;
73331;SDS011;61560;33.718;73.040;2023-02-01T16:04:01;35.83;;;14.15;;
73331;SDS011;61560;33.718;73.040;2023-02-01T16:06:31;24.23;;;11.80;;
73331;SDS011;61560;33.718;73.040;2023-02-01T16:11:56;29.73;;;12.52;;
73331;SDS011;61560;33.718;73.040;2023-02-01T16:14:25;19.13;;;10.63;;
73331;SDS011;61560;33.718;73.040;2023-02-01T16:16:55;26.70;;;10.88;;
73331;SDS011;61560;33.718;73.040;2023-02-01T16:19:27;27.33;;;11.65;;
73331;SDS011;61560;33.718;73.040;2023-02-01T16:22:06;27.98;;;11.48;;
73331;SDS011;61560;33.718;73.040;2023-02-01T16:24:32;26.98;;;10.95;;
73331;SDS011;61560;33.718;73.040;2023-02-01T16:26:59;23.73;;;9.98;;
73331;SDS011;61560;33.718;73.040;2023-02-01T16:29:26;24.17;;;9.73;;
73331;SDS011;61560;33.718;73.040;2023-02-01T16:31:53;17.60;;;9.25;;
73331;SDS011;61560;33.718;73.040;2023-02-01T16:34:20;22.25;;;9.55;;
73331;SDS011;61560;33.718;73.040;2023-02-01T16:36:50;21.45;;;9.10;;
73331;SDS011;61560;33.718;73.040;2023-02-01T16:39:23;17.80;;;8.98;;
73331;SDS011;61560;33.718;73.040;2023-02-01T16:41:50;25.98;;;8.77;;
73331;SDS011;61560;33.718;73.040;2023-02-01T16:44:17;21.17;;;8.88;;
73331;SDS011;61560;33.718;73.040;2023-02-01T16:46:44;22.15;;;9.50;;
73331;SDS011;61560;33.718;73.040;2023-02-01T16:49:33;24.50;;;9.52;;
73331;SDS011;61560;33.718;73.040;2023-02-01T16:52:01;28.25;;;9.73;;
73331;SDS011;61560;33.718;73.040;2023-02-01T16:54:28;24.63;;;9.77;;
73331;SDS011;61560;33.718;73.040;2023-02-01T16:56:55;19.27;;;8.80;;
73331;SDS011;61560;33.718;73.040;2023-02-01T16:59:21;26.00;;;9.00;;
73331;SDS011;61560;33.718;73.040;2023-02-01T17:01:48;20.67;;;9.50;;
73331;SDS011;61560;33.718;73.040;2023-02-01T17:04:14;24.05;;;10.20;;
73331;SDS011;61560;33.718;73.040;2023-02-01T17:06:42;20.45;;;8.93;;
73331;SDS011;61560;33.718;73.040;2023-02-01T17:09:13;27.20;;;9.50;;
73331;SDS011;61560;33.718;73.040;2023-02-01T17:11:40;19.40;;;8.63;;
73331;SDS011;61560;33.718;73.040;2023-02-01T17:14:13;18.35;;;9.07;;
73331;SDS011;61560;33.718;73.040;2023-02-01T17:16:45;21.67;;;9.18;;
73331;SDS011;61560;33.718;73.040;2023-02-01T17:19:15;21.80;;;8.60;;
73331;SDS011;61560;33.718;73.040;2023-02-01T17:21:45;25.25;;;9.25;;
73331;SDS011;61560;33.718;73.040;2023-02-01T17:24:15;23.10;;;8.30;;
73331;SDS011;61560;33.718;73.040;2023-02-01T17:26:44;30.35;;;8.38;;
73331;SDS011;61560;33.718;73.040;2023-02-01T17:29:11;20.02;;;8.57;;
73331;SDS011;61560;33.718;73.040;2023-02-01T17:31:39;18.85;;;8.07;;
73331;SDS011;61560;33.718;73.040;2023-02-01T17:34:12;17.90;;;8.35;;
73331;SDS011;61560;33.718;73.040;2023-02-01T17:36:45;27.83;;;9.27;;
73331;SDS011;61560;33.718;73.040;2023-02-01T17:39:13;20.55;;;9.45;;
73331;SDS011;61560;33.718;73.040;2023-02-01T17:42:00;24.77;;;9.27;;
73331;SDS011;61560;33.718;73.040;2023-02-01T17:44:27;23.42;;;10.00;;
73331;SDS011;61560;33.718;73.040;2023-02-01T17:46:55;26.75;;;9.52;;
73331;SDS011;61560;33.718;73.040;2023-02-01T17:49:23;25.65;;;8.65;;
73331;SDS011;61560;33.718;73.040;2023-02-01T17:51:50;18.15;;;8.60;;
73331;SDS011;61560;33.718;73.040;2023-02-01T17:54:17;18.35;;;8.82;;
73331;SDS011;61560;33.718;73.040;2023-02-01T17:56:44;18.88;;;9.63;;
73331;SDS011;61560;33.718;73.040;2023-02-01T17:59:13;18.85;;;8.77;;
73331;SDS011;61560;33.718;73.040;2023-02-01T18:01:40;22.33;;;9.20;;
73331;SDS011;61560;33.718;73.040;2023-02-01T18:04:10;21.85;;;9.57;;
73331;SDS011;61560;33.718;73.040;2023-02-01T18:06:39;19.30;;;9.07;;
73331;SDS011;61560;33.718;73.040;2023-02-01T18:09:05;18.52;;;7.97;;
73331;SDS011;61560;33.718;73.040;2023-02-01T18:11:32;22.33;;;8.13;;
73331;SDS011;61560;33.718;73.040;2023-02-01T18:13:58;20.27;;;8.90;;
73331;SDS011;61560;33.718;73.040;2023-02-01T18:16:28;23.63;;;8.90;;
73331;SDS011;61560;33.718;73.040;2023-02-01T18:18:56;13.40;;;7.05;;
73331;SDS011;61560;33.718;73.040;2023-02-01T18:21:29;19.05;;;7.18;;
73331;SDS011;61560;33.718;73.040;2023-02-01T18:23:59;18.50;;;7.33;;
73331;SDS011;61560;33.718;73.040;2023-02-01T18:26:26;14.13;;;7.13;;
73331;SDS011;61560;33.718;73.040;2023-02-01T18:28:53;14.88;;;7.70;;
73331;SDS011;61560;33.718;73.040;2023-02-01T18:31:30;17.20;;;7.38;;
73331;SDS011;61560;33.718;73.040;2023-02-01T18:33:58;21.25;;;7.60;;
73331;SDS011;61560;33.718;73.040;2023-02-01T18:36:25;19.98;;;8.27;;
73331;SDS011;61560;33.718;73.040;2023-02-01T18:38:53;17.77;;;7.82;;
73331;SDS011;61560;33.718;73.040;2023-02-01T18:41:22;17.83;;;7.43;;
73331;SDS011;61560;33.718;73.040;2023-02-01T18:43:50;18.92;;;7.35;;
73331;SDS011;61560;33.718;73.040;2023-02-01T18:46:17;17.00;;;8.30;;
73331;SDS011;61560;33.718;73.040;2023-02-01T18:48:47;21.73;;;7.80;;
73331;SDS011;61560;33.718;73.040;2023-02-01T18:51:17;20.00;;;7.07;;
73331;SDS011;61560;33.718;73.040;2023-02-01T18:53:46;19.08;;;7.63;;
73331;SDS011;61560;33.718;73.040;2023-02-01T18:56:13;19.17;;;8.27;;
73331;SDS011;61560;33.718;73.040;2023-02-01T18:58:40;15.68;;;6.95;;
73331;SDS011;61560;33.718;73.040;2023-02-01T19:01:08;18.70;;;7.50;;
73331;SDS011;61560;33.718;73.040;2023-02-01T19:03:42;16.67;;;6.85;;
73331;SDS011;61560;33.718;73.040;2023-02-01T19:06:10;17.65;;;7.88;;
73331;SDS011;61560;33.718;73.040;2023-02-01T19:08:37;18.13;;;8.57;;
73331;SDS011;61560;33.718;73.040;2023-02-01T19:11:04;26.20;;;11.20;;
73331;SDS011;61560;33.718;73.040;2023-02-01T19:13:34;20.80;;;9.52;;
73331;SDS011;61560;33.718;73.040;2023-02-01T19:16:04;27.17;;;11.07;;
73331;SDS011;61560;33.718;73.040;2023-02-01T19:18:34;25.88;;;12.15;;
73331;SDS011;61560;33.718;73.040;2023-02-01T19:21:03;34.03;;;13.25;;
73331;SDS011;61560;33.718;73.040;2023-02-01T19:23:31;29.35;;;11.93;;